sensor_id;sensor_type;location;lat;lon;timestamp;pressure;altitude;pressure_sealevel;temperature;humidity
4590;BME280;2307;48.448;9.216;2023-03-04T00:01:41;95840.84;;;2.23;100.00
4590;BME280;2307;48.448;9.216;2023-03-04T00:04:09;95848.38;;;2.18;100.00
4590;BME280;2307;48.448;9.216;2023-03-04T00:06:35;95853.25;;;2.21;100.00
4590;BME280;2307;48.448;9.216;2023-03-04T00:09:02;95851.16;;;2.16;100.00
4590;BME280;2307;48.448;9.216;2023-03-04T00:11:28;95849.22;;;2.18;100.00
4590;BME280;2307;48.448;9.216;2023-03-04T00:13:55;95846.41;;;2.20;100.00
4590;BME280;2307;48.448;9.216;2023-03-04T00:16:22;95849.72;;;2.13;100.00
4590;BME280;2307;48.448;9.216;2023-03-04T00:18:51;95844.50;;;2.13;100.00
4590;BME280;2307;48.448;9.216;2023-03-04T00:21:19;95847.69;;;2.24;100.00
4590;BME280;2307;48.448;9.216;2023-03-04T00:23:45;95846.41;;;2.20;100.00
4590;BME280;2307;48.448;9.216;2023-03-04T00:26:11;95845.78;;;2.18;100.00
4590;BME280;2307;48.448;9.216;2023-03-04T00:28:38;95841.63;;;2.00;100.00
4590;BME280;2307;48.448;9.216;2023-03-04T00:31:04;95843.94;;;1.95;100.00
4590;BME280;2307;48.448;9.216;2023-03-04T00:33:30;95833.88;;;1.92;100.00
4590;BME280;2307;48.448;9.216;2023-03-04T00:35:57;95834.97;;;1.98;100.00
4590;BME280;2307;48.448;9.216;2023-03-04T00:38:25;95838.69;;;2.03;100.00
4590;BME280;2307;48.448;9.216;2023-03-04T00:40:51;95829.13;;;1.96;100.00
4590;BME280;2307;48.448;9.216;2023-03-04T00:43:18;95838.41;;;1.90;100.00
4590;BME280;2307;48.448;9.216;2023-03-04T00:45:44;95839.03;;;2.00;100.00
4590;BME280;2307;48.448;9.216;2023-03-04T00:48:11;95837.09;;;1.94;100.00
4590;BME280;2307;48.448;9.216;2023-03-04T00:50:37;95835.09;;;2.04;100.00
4590;BME280;2307;48.448;9.216;2023-03-04T00:53:04;95839.69;;;2.02;100.00
4590;BME280;2307;48.448;9.216;2023-03-04T00:55:32;95834.81;;;1.99;100.00
4590;BME280;2307;48.448;9.216;2023-03-04T00:57:58;95829.00;;;1.89;100.00
4590;BME280;2307;48.448;9.216;2023-03-04T01:00:24;95830.16;;;1.87;100.00
4590;BME280;2307;48.448;9.216;2023-03-04T01:02:51;95831.56;;;1.97;100.00
4590;BME280;2307;48.448;9.216;2023-03-04T01:05:17;95825.53;;;1.97;100.00
4590;BME280;2307;48.448;9.216;2023-03-04T01:07:44;95830.94;;;1.87;100.00
4590;BME280;2307;48.448;9.216;2023-03-04T01:10:11;95824.50;;;1.75;100.00
4590;BME280;2307;48.448;9.216;2023-03-04T01:12:39;95829.50;;;1.85;100.00
4590;BME280;2307;48.448;9.216;2023-03-04T01:15:06;95818.31;;;1.76;100.00
4590;BME280;2307;48.448;9.216;2023-03-04T01:17:33;95819.00;;;1.70;100.00
4590;BME280;2307;48.448;9.216;2023-03-04T01:19:59;95823.25;;;1.71;100.00
4590;BME280;2307;48.448;9.216;2023-03-04T01:22:26;95816.91;;;1.66;100.00
4590;BME280;2307;48.448;9.216;2023-03-04T01:24:52;95820.94;;;1.68;100.00
4590;BME280;2307;48.448;9.216;2023-03-04T01:27:18;95814.47;;;1.64;100.00
4590;BME280;2307;48.448;9.216;2023-03-04T01:29:46;95816.34;;;1.78;100.00
4590;BME280;2307;48.448;9.216;2023-03-04T01:32:13;95812.31;;;1.76;100.00
4590;BME280;2307;48.448;9.216;2023-03-04T01:34:39;95819.69;;;1.64;100.00
4590;BME280;2307;48.448;9.216;2023-03-04T01:37:06;95810.97;;;1.49;100.00
4590;BME280;2307;48.448;9.216;2023-03-04T01:39:32;95803.94;;;1.57;100.00
4590;BME280;2307;48.448;9.216;2023-03-04T01:41:58;95811.81;;;1.72;100.00
4590;BME280;2307;48.448;9.216;2023-03-04T01:44:25;95806.81;;;1.63;100.00
4590;BME280;2307;48.448;9.216;2023-03-04T01:46:53;95804.44;;;1.53;100.00
4590;BME280;2307;48.448;9.216;2023-03-04T01:49:20;95802.16;;;1.50;100.00
4590;BME280;2307;48.448;9.216;2023-03-04T01:51:48;95801.69;;;1.46;100.00
4590;BME280;2307;48.448;9.216;2023-03-04T01:54:16;95804.13;;;1.48;100.00
4590;BME280;2307;48.448;9.216;2023-03-04T01:56:43;95803.31;;;1.47;100.00
4590;BME280;2307;48.448;9.216;2023-03-04T01:59:10;95806.06;;;1.46;100.00
4590;BME280;2307;48.448;9.216;2023-03-04T02:01:37;95804.13;;;1.48;100.00
4590;BME280;2307;48.448;9.216;2023-03-04T02:04:06;95804.81;;;1.42;100.00
4590;BME280;2307;48.448;9.216;2023-03-04T02:06:33;95806.78;;;1.32;100.00
4590;BME280;2307;48.448;9.216;2023-03-04T02:08:59;95799.31;;;1.29;100.00
4590;BME280;2307;48.448;9.216;2023-03-04T02:11:25;95794.94;;;1.21;100.00
4590;BME280;2307;48.448;9.216;2023-03-04T02:13:52;95799.50;;;1.11;100.00
4590;BME280;2307;48.448;9.216;2023-03-04T02:16:18;95794.78;;;1.23;100.00
4590;BME280;2307;48.448;9.216;2023-03-04T02:18:45;95797.06;;;1.18;100.00
4590;BME280;2307;48.448;9.216;2023-03-04T02:21:13;95794.16;;;1.13;100.00
4590;BME280;2307;48.448;9.216;2023-03-04T02:23:43;95798.53;;;1.12;100.00
4590;BME280;2307;48.448;9.216;2023-03-04T02:26:14;95793.19;;;1.05;100.00
4590;BME280;2307;48.448;9.216;2023-03-04T02:28:41;95790.59;;;1.05;100.00
4590;BME280;2307;48.448;9.216;2023-03-04T02:31:10;95788.03;;;0.97;100.00
4590;BME280;2307;48.448;9.216;2023-03-04T02:33:45;95797.75;;;0.95;100.00
4590;BME280;2307;48.448;9.216;2023-03-04T02:36:11;95796.50;;;0.91;100.00
4590;BME280;2307;48.448;9.216;2023-03-04T02:38:38;95793.56;;;0.86;100.00
4590;BME280;2307;48.448;9.216;2023-03-04T02:41:04;95791.63;;;0.80;100.00
4590;BME280;2307;48.448;9.216;2023-03-04T02:43:33;95795.22;;;0.79;100.00
4590;BME280;2307;48.448;9.216;2023-03-04T02:45:59;95785.94;;;0.85;100.00
4590;BME280;2307;48.448;9.216;2023-03-04T02:48:25;95790.31;;;0.84;100.00
4590;BME280;2307;48.448;9.216;2023-03-04T02:50:52;95786.75;;;0.77;100.00
4590;BME280;2307;48.448;9.216;2023-03-04T02:53:19;95792.63;;;0.79;100.00
4590;BME280;2307;48.448;9.216;2023-03-04T02:55:46;95786.09;;;0.91;100.00
4590;BME280;2307;48.448;9.216;2023-03-04T02:58:12;95793.69;;;1.09;100.00
4590;BME280;2307;48.448;9.216;2023-03-04T03:00:40;95797.44;;;1.06;100.00
4590;BME280;2307;48.448;9.216;2023-03-04T03:03:06;95787.38;;;1.03;100.00
4590;BME280;2307;48.448;9.216;2023-03-04T03:05:33;95788.97;;;1.13;100.00
4590;BME280;2307;48.448;9.216;2023-03-04T03:07:59;95796.47;;;1.08;100.00
4590;BME280;2307;48.448;9.216;2023-03-04T03:10:26;95798.09;;;1.00;100.00
4590;BME280;2307;48.448;9.216;2023-03-04T03:12:52;95794.56;;;0.85;100.00
4590;BME280;2307;48.448;9.216;2023-03-04T03:15:19;95795.03;;;0.81;100.00
4590;BME280;2307;48.448;9.216;2023-03-04T03:17:47;95795.53;;;0.84;100.00
4590;BME280;2307;48.448;9.216;2023-03-04T03:20:13;95792.91;;;0.92;100.00
4590;BME280;2307;48.448;9.216;2023-03-04T03:22:40;95785.91;;;0.93;100.00
4590;BME280;2307;48.448;9.216;2023-03-04T03:25:07;95796.81;;;0.88;100.00
4590;BME280;2307;48.448;9.216;2023-03-04T03:27:34;95784.31;;;0.84;100.00
4590;BME280;2307;48.448;9.216;2023-03-04T03:30:01;95793.91;;;0.83;100.00
4590;BME280;2307;48.448;9.216;2023-03-04T03:32:27;95794.91;;;0.66;100.00
4590;BME280;2307;48.448;9.216;2023-03-04T03:34:55;95790.84;;;0.72;100.00
4590;BME280;2307;48.448;9.216;2023-03-04T03:37:22;95792.91;;;0.76;100.00
4590;BME280;2307;48.448;9.216;2023-03-04T03:39:48;95800.91;;;0.59;100.00
4590;BME280;2307;48.448;9.216;2023-03-04T03:42:14;95794.06;;;0.58;100.00
4590;BME280;2307;48.448;9.216;2023-03-04T03:44:41;95803.81;;;0.64;100.00
4590;BME280;2307;48.448;9.216;2023-03-04T03:47:07;95793.28;;;0.65;100.00
4590;BME280;2307;48.448;9.216;2023-03-04T03:49:34;95791.97;;;0.61;100.00
4590;BME280;2307;48.448;9.216;2023-03-04T03:52:01;95796.38;;;0.52;100.00
4590;BME280;2307;48.448;9.216;2023-03-04T03:54:28;95788.25;;;0.47;100.00
4590;BME280;2307;48.448;9.216;2023-03-04T03:56:54;95795.22;;;0.55;100.00
4590;BME280;2307;48.448;9.216;2023-03-04T03:59:21;95790.84;;;0.56;100.00
4590;BME280;2307;48.448;9.216;2023-03-04T04:01:48;95797.19;;;0.53;100.00
4590;BME280;2307;48.448;9.216;2023-03-04T04:04:14;95786.63;;;0.46;100.00
4590;BME280;2307;48.448;9.216;2023-03-04T04:06:41;95793.63;;;0.38;100.00
4590;BME280;2307;48.448;9.216;2023-03-04T04:09:08;95790.38;;;0.28;100.00
4590;BME280;2307;48.448;9.216;2023-03-04T04:11:35;95792.97;;;0.28;100.00
4590;BME280;2307;48.448;9.216;2023-03-04T04:14:01;95786.00;;;0.28;100.00
4590;BME280;2307;48.448;9.216;2023-03-04T04:16:27;95791.31;;;0.27;100.00
4590;BME280;2307;48.448;9.216;2023-03-04T04:18:54;95792.97;;;0.28;100.00
4590;BME280;2307;48.448;9.216;2023-03-04T04:21:20;95797.16;;;0.29;100.00
4590;BME280;2307;48.448;9.216;2023-03-04T04:23:47;95793.44;;;0.31;100.00
4590;BME280;2307;48.448;9.216;2023-03-04T04:26:15;95791.00;;;0.30;100.00
4590;BME280;2307;48.448;9.216;2023-03-04T04:28:41;95795.38;;;0.29;100.00
4590;BME280;2307;48.448;9.216;2023-03-04T04:31:07;95798.47;;;0.33;100.00
4590;BME280;2307;48.448;9.216;2023-03-04T04:33:34;95799.94;;;0.35;100.00
4590;BME280;2307;48.448;9.216;2023-03-04T04:36:00;95793.78;;;0.28;100.00
4590;BME280;2307;48.448;9.216;2023-03-04T04:38:27;95795.88;;;0.33;100.00
4590;BME280;2307;48.448;9.216;2023-03-04T04:40:55;95789.38;;;0.29;100.00
4590;BME280;2307;48.448;9.216;2023-03-04T04:43:23;95791.63;;;0.32;100.00
4590;BME280;2307;48.448;9.216;2023-03-04T04:45:49;95792.47;;;0.24;100.00
4590;BME280;2307;48.448;9.216;2023-03-04T04:48:15;95785.63;;;0.23;100.00
4590;BME280;2307;48.448;9.216;2023-03-04T04:50:42;95788.41;;;0.22;100.00
4590;BME280;2307;48.448;9.216;2023-03-04T04:53:09;95792.78;;;0.21;100.00
4590;BME280;2307;48.448;9.216;2023-03-04T04:55:37;95793.28;;;0.25;100.00
4590;BME280;2307;48.448;9.216;2023-03-04T04:58:04;95791.66;;;0.24;100.00
4590;BME280;2307;48.448;9.216;2023-03-04T05:00:32;95789.06;;;0.16;100.00
4590;BME280;2307;48.448;9.216;2023-03-04T05:02:58;95789.06;;;0.16;100.00
4590;BME280;2307;48.448;9.216;2023-03-04T05:05:24;95791.81;;;0.06;100.00
4590;BME280;2307;48.448;9.216;2023-03-04T05:07:51;95799.91;;;0.11;100.00
4590;BME280;2307;48.448;9.216;2023-03-04T05:10:17;95796.19;;;0.06;100.00
4590;BME280;2307;48.448;9.216;2023-03-04T05:12:43;95794.72;;;0.03;100.00
4590;BME280;2307;48.448;9.216;2023-03-04T05:15:10;95790.66;;;0.00;100.00
4590;BME280;2307;48.448;9.216;2023-03-04T05:17:38;95786.72;;;-0.12;100.00
4590;BME280;2307;48.448;9.216;2023-03-04T05:20:04;95790.66;;;-0.08;100.00
4590;BME280;2307;48.448;9.216;2023-03-04T05:22:31;95792.09;;;-0.05;100.00
4590;BME280;2307;48.448;9.216;2023-03-04T05:24:57;95787.41;;;-0.10;100.00
4590;BME280;2307;48.448;9.216;2023-03-04T05:27:24;95785.78;;;-0.03;100.00
4590;BME280;2307;48.448;9.216;2023-03-04T05:29:50;95785.91;;;-0.12;100.00
4590;BME280;2307;48.448;9.216;2023-03-04T05:32:17;95791.25;;;-0.22;100.00
4590;BME280;2307;48.448;9.216;2023-03-04T05:34:45;95786.06;;;-0.30;100.00
4590;BME280;2307;48.448;9.216;2023-03-04T05:37:11;95791.56;;;-0.33;100.00
4590;BME280;2307;48.448;9.216;2023-03-04T05:39:37;95791.56;;;-0.33;100.00
4590;BME280;2307;48.448;9.216;2023-03-04T05:42:04;95786.69;;;-0.28;100.00
4590;BME280;2307;48.448;9.216;2023-03-04T05:44:30;95787.38;;;-0.26;100.00
4590;BME280;2307;48.448;9.216;2023-03-04T05:46:57;95786.69;;;-0.28;100.00
4590;BME280;2307;48.448;9.216;2023-03-04T05:49:23;95774.72;;;-0.29;100.00
4590;BME280;2307;48.448;9.216;2023-03-04T05:51:51;95790.59;;;-0.24;100.00
4590;BME280;2307;48.448;9.216;2023-03-04T05:54:17;95785.75;;;-0.19;100.00
4590;BME280;2307;48.448;9.216;2023-03-04T05:56:44;95790.47;;;-0.22;100.00
4590;BME280;2307;48.448;9.216;2023-03-04T05:59:10;95782.19;;;-0.18;100.00
4590;BME280;2307;48.448;9.216;2023-03-04T06:01:37;95788.66;;;-0.22;100.00
4590;BME280;2307;48.448;9.216;2023-03-04T06:04:03;95794.03;;;-0.23;100.00
4590;BME280;2307;48.448;9.216;2023-03-04T06:06:30;95798.66;;;-0.35;100.00
4590;BME280;2307;48.448;9.216;2023-03-04T06:08:57;95799.84;;;-0.29;100.00
4590;BME280;2307;48.448;9.216;2023-03-04T06:11:24;95807.78;;;-0.31;100.00
4590;BME280;2307;48.448;9.216;2023-03-04T06:13:50;95803.38;;;-0.38;100.00
4590;BME280;2307;48.448;9.216;2023-03-04T06:16:17;95808.25;;;-0.35;100.00
4590;BME280;2307;48.448;9.216;2023-03-04T06:18:43;95811.38;;;-0.24;100.00
4590;BME280;2307;48.448;9.216;2023-03-04T06:21:10;95815.59;;;-0.23;100.00
4590;BME280;2307;48.448;9.216;2023-03-04T06:23:36;95810.91;;;-0.19;100.00
4590;BME280;2307;48.448;9.216;2023-03-04T06:26:04;95812.03;;;-0.14;100.00
4590;BME280;2307;48.448;9.216;2023-03-04T06:28:33;95820.66;;;-0.05;100.00
4590;BME280;2307;48.448;9.216;2023-03-04T06:30:59;95825.06;;;0.03;100.00
4590;BME280;2307;48.448;9.216;2023-03-04T06:33:26;95826.22;;;0.00;100.00
4590;BME280;2307;48.448;9.216;2023-03-04T06:35:53;95828.44;;;-0.13;100.00
4590;BME280;2307;48.448;9.216;2023-03-04T06:38:19;95836.19;;;-0.21;100.00
4590;BME280;2307;48.448;9.216;2023-03-04T06:40:46;95839.91;;;-0.24;100.00
4590;BME280;2307;48.448;9.216;2023-03-04T06:43:13;95847.56;;;-0.22;100.00
4590;BME280;2307;48.448;9.216;2023-03-04T06:45:40;95839.94;;;-0.16;100.00
4590;BME280;2307;48.448;9.216;2023-03-04T06:48:06;95842.06;;;-0.11;100.00
4590;BME280;2307;48.448;9.216;2023-03-04T06:50:33;95841.91;;;-0.10;100.00
4590;BME280;2307;48.448;9.216;2023-03-04T06:52:59;95846.78;;;-0.07;100.00
4590;BME280;2307;48.448;9.216;2023-03-04T06:55:28;95850.69;;;-0.03;100.00
4590;BME280;2307;48.448;9.216;2023-03-04T06:57:54;95849.72;;;-0.02;100.00
4590;BME280;2307;48.448;9.216;2023-03-04T07:00:22;95854.31;;;0.13;100.00
4590;BME280;2307;48.448;9.216;2023-03-04T07:02:49;95860.78;;;0.17;100.00
4590;BME280;2307;48.448;9.216;2023-03-04T07:05:15;95852.34;;;0.23;100.00
4590;BME280;2307;48.448;9.216;2023-03-04T07:07:41;95859.50;;;0.21;100.00
4590;BME280;2307;48.448;9.216;2023-03-04T07:10:08;95864.06;;;0.27;100.00
4590;BME280;2307;48.448;9.216;2023-03-04T07:12:35;95879.78;;;0.17;100.00
4590;BME280;2307;48.448;9.216;2023-03-04T07:15:01;95880.22;;;0.05;100.00
4590;BME280;2307;48.448;9.216;2023-03-04T07:17:29;95874.09;;;0.14;100.00
4590;BME280;2307;48.448;9.216;2023-03-04T07:19:56;95879.97;;;0.24;100.00
4590;BME280;2307;48.448;9.216;2023-03-04T07:22:22;95877.69;;;0.29;100.00
4590;BME280;2307;48.448;9.216;2023-03-04T07:24:48;95878.69;;;0.36;100.00
4590;BME280;2307;48.448;9.216;2023-03-04T07:27:15;95880.31;;;0.37;100.00
4590;BME280;2307;48.448;9.216;2023-03-04T07:29:41;95878.84;;;0.34;100.00
4590;BME280;2307;48.448;9.216;2023-03-04T07:32:08;95877.72;;;0.45;100.00
4590;BME280;2307;48.448;9.216;2023-03-04T07:34:36;95868.13;;;0.45;100.00
4590;BME280;2307;48.448;9.216;2023-03-04T07:37:03;95870.59;;;0.47;100.00
4590;BME280;2307;48.448;9.216;2023-03-04T07:39:29;95870.13;;;0.60;100.00
4590;BME280;2307;48.448;9.216;2023-03-04T07:41:55;95868.31;;;0.52;100.00
4590;BME280;2307;48.448;9.216;2023-03-04T07:44:22;95869.44;;;0.58;100.00
4590;BME280;2307;48.448;9.216;2023-03-04T07:46:48;95869.13;;;0.69;100.00
4590;BME280;2307;48.448;9.216;2023-03-04T07:49:15;95868.00;;;0.71;100.00
4590;BME280;2307;48.448;9.216;2023-03-04T07:51:42;95881.47;;;0.91;100.00
4590;BME280;2307;48.448;9.216;2023-03-04T07:54:09;95884.88;;;0.83;100.00
4590;BME280;2307;48.448;9.216;2023-03-04T07:56:36;95884.91;;;0.91;100.00
4590;BME280;2307;48.448;9.216;2023-03-04T07:59:02;95883.09;;;1.00;100.00
4590;BME280;2307;48.448;9.216;2023-03-04T08:01:29;95878.06;;;0.90;100.00
4590;BME280;2307;48.448;9.216;2023-03-04T08:03:56;95884.75;;;0.85;100.00
4590;BME280;2307;48.448;9.216;2023-03-04T08:06:23;95884.72;;;0.93;100.00
4590;BME280;2307;48.448;9.216;2023-03-04T08:08:54;95888.78;;;1.03;100.00
4590;BME280;2307;48.448;9.216;2023-03-04T08:11:21;95891.53;;;1.02;100.00
4590;BME280;2307;48.448;9.216;2023-03-04T08:13:47;95886.81;;;1.05;100.00
4590;BME280;2307;48.448;9.216;2023-03-04T08:16:14;95891.84;;;1.15;100.00
4590;BME280;2307;48.448;9.216;2023-03-04T08:18:41;95884.72;;;1.09;100.00
4590;BME280;2307;48.448;9.216;2023-03-04T08:21:08;95881.94;;;1.19;100.00
4590;BME280;2307;48.448;9.216;2023-03-04T08:23:35;95888.13;;;1.26;100.00
4590;BME280;2307;48.448;9.216;2023-03-04T08:26:06;95891.16;;;1.45;100.00
4590;BME280;2307;48.448;9.216;2023-03-04T08:28:32;95904.66;;;1.49;100.00
4590;BME280;2307;48.448;9.216;2023-03-04T08:30:59;95899.47;;;1.49;100.00
4590;BME280;2307;48.448;9.216;2023-03-04T08:33:25;95894.06;;;1.58;100.00
4590;BME280;2307;48.448;9.216;2023-03-04T08:35:52;95906.50;;;1.79;100.00
4590;BME280;2307;48.448;9.216;2023-03-04T08:38:18;95907.09;;;1.50;100.00
4590;BME280;2307;48.448;9.216;2023-03-04T08:40:44;95905.31;;;1.43;100.00
4590;BME280;2307;48.448;9.216;2023-03-04T08:43:12;95906.56;;;1.63;100.00
4590;BME280;2307;48.448;9.216;2023-03-04T08:45:39;95908.81;;;1.74;100.00
4590;BME280;2307;48.448;9.216;2023-03-04T08:48:05;95914.41;;;1.55;100.00
4590;BME280;2307;48.448;9.216;2023-03-04T08:50:31;95916.66;;;1.66;100.00
4590;BME280;2307;48.448;9.216;2023-03-04T08:52:58;95916.34;;;1.61;100.00
4590;BME280;2307;48.448;9.216;2023-03-04T08:55:24;95916.44;;;1.76;100.00
4590;BME280;2307;48.448;9.216;2023-03-04T08:57:51;95915.34;;;1.70;100.00
4590;BME280;2307;48.448;9.216;2023-03-04T09:00:19;95916.97;;;1.63;100.00
4590;BME280;2307;48.448;9.216;2023-03-04T09:02:46;95918.88;;;1.85;100.00
4590;BME280;2307;48.448;9.216;2023-03-04T09:05:12;95917.84;;;2.02;100.00
4590;BME280;2307;48.448;9.216;2023-03-04T09:07:39;95927.63;;;1.92;100.00
4590;BME280;2307;48.448;9.216;2023-03-04T09:10:05;95927.38;;;1.63;100.00
4590;BME280;2307;48.448;9.216;2023-03-04T09:12:32;95924.91;;;1.78;100.00
4590;BME280;2307;48.448;9.216;2023-03-04T09:14:58;95926.06;;;1.75;100.00
4590;BME280;2307;48.448;9.216;2023-03-04T09:17:26;95929.53;;;1.51;100.00
4590;BME280;2307;48.448;9.216;2023-03-04T09:19:52;95932.59;;;1.71;100.00
4590;BME280;2307;48.448;9.216;2023-03-04T09:22:19;95926.38;;;1.72;100.00
4590;BME280;2307;48.448;9.216;2023-03-04T09:24:45;95931.59;;;1.80;100.00
4590;BME280;2307;48.448;9.216;2023-03-04T09:27:12;95933.47;;;1.94;100.00
4590;BME280;2307;48.448;9.216;2023-03-04T09:29:38;95932.69;;;1.86;100.00
4590;BME280;2307;48.448;9.216;2023-03-04T09:32:05;95933.47;;;2.02;100.00
4590;BME280;2307;48.448;9.216;2023-03-04T09:34:32;95930.94;;;1.78;100.00
4590;BME280;2307;48.448;9.216;2023-03-04T09:36:59;95932.25;;;1.74;100.00
4590;BME280;2307;48.448;9.216;2023-03-04T09:39:25;95932.22;;;1.82;100.00
4590;BME280;2307;48.448;9.216;2023-03-04T09:41:52;95931.94;;;1.77;100.00
4590;BME280;2307;48.448;9.216;2023-03-04T09:44:22;95934.16;;;1.88;100.00
4590;BME280;2307;48.448;9.216;2023-03-04T09:46:49;95933.19;;;1.81;100.00
4590;BME280;2307;48.448;9.216;2023-03-04T09:49:16;95934.56;;;1.61;100.00
4590;BME280;2307;48.448;9.216;2023-03-04T09:51:47;95945.03;;;1.29;100.00
4590;BME280;2307;48.448;9.216;2023-03-04T09:54:17;95939.50;;;1.24;100.00
4590;BME280;2307;48.448;9.216;2023-03-04T09:56:48;95942.41;;;1.45;100.00
4590;BME280;2307;48.448;9.216;2023-03-04T09:59:16;95947.59;;;1.21;100.00
4590;BME280;2307;48.448;9.216;2023-03-04T10:01:49;95953.78;;;1.28;100.00
4590;BME280;2307;48.448;9.216;2023-03-04T10:04:19;95953.97;;;1.18;100.00
4590;BME280;2307;48.448;9.216;2023-03-04T10:06:48;95951.69;;;1.39;100.00
4590;BME280;2307;48.448;9.216;2023-03-04T10:09:18;95946.50;;;1.23;100.00
4590;BME280;2307;48.448;9.216;2023-03-04T10:11:47;95946.16;;;1.26;100.00
4590;BME280;2307;48.448;9.216;2023-03-04T10:14:27;95945.84;;;1.29;100.00
4590;BME280;2307;48.448;9.216;2023-03-04T10:16:58;95940.78;;;1.36;100.00
4590;BME280;2307;48.448;9.216;2023-03-04T10:19:30;95941.28;;;1.39;100.00
4590;BME280;2307;48.448;9.216;2023-03-04T10:22:05;95938.34;;;1.34;100.00
4590;BME280;2307;48.448;9.216;2023-03-04T10:24:39;95939.16;;;1.35;100.00
4590;BME280;2307;48.448;9.216;2023-03-04T10:27:06;95937.53;;;1.34;100.00
4590;BME280;2307;48.448;9.216;2023-03-04T10:29:36;95935.25;;;1.39;100.00
4590;BME280;2307;48.448;9.216;2023-03-04T10:32:03;95936.22;;;1.38;100.00
4590;BME280;2307;48.448;9.216;2023-03-04T10:34:29;95935.59;;;1.20;100.00
4590;BME280;2307;48.448;9.216;2023-03-04T10:36:57;95936.91;;;1.08;100.00
4590;BME280;2307;48.448;9.216;2023-03-04T10:39:26;95927.13;;;1.26;100.00
4590;BME280;2307;48.448;9.216;2023-03-04T10:41:54;95930.19;;;1.37;100.00
4590;BME280;2307;48.448;9.216;2023-03-04T10:44:21;95931.38;;;1.19;100.00
4590;BME280;2307;48.448;9.216;2023-03-04T10:46:48;95936.75;;;1.17;100.00
4590;BME280;2307;48.448;9.216;2023-03-04T10:49:15;95927.13;;;1.18;100.00
4590;BME280;2307;48.448;9.216;2023-03-04T10:51:43;95933.66;;;1.14;100.00
4590;BME280;2307;48.448;9.216;2023-03-04T10:54:13;95935.25;;;0.98;100.00
4590;BME280;2307;48.448;9.216;2023-03-04T10:56:53;95930.06;;;0.74;100.00
4590;BME280;2307;48.448;9.216;2023-03-04T10:59:30;95929.44;;;0.88;100.00
4590;BME280;2307;48.448;9.216;2023-03-04T11:01:57;95932.34;;;1.18;100.00
4590;BME280;2307;48.448;9.216;2023-03-04T11:04:24;95928.91;;;1.25;100.00
4590;BME280;2307;48.448;9.216;2023-03-04T11:06:51;95932.97;;;1.28;100.00
4590;BME280;2307;48.448;9.216;2023-03-04T11:09:21;95929.09;;;1.24;100.00
4590;BME280;2307;48.448;9.216;2023-03-04T11:11:48;95929.56;;;1.11;100.00
4590;BME280;2307;48.448;9.216;2023-03-04T11:14:18;95928.41;;;1.38;100.00
4590;BME280;2307;48.448;9.216;2023-03-04T11:16:51;95921.56;;;1.53;100.00
4590;BME280;2307;48.448;9.216;2023-03-04T11:19:18;95921.56;;;1.61;100.00
4590;BME280;2307;48.448;9.216;2023-03-04T11:21:46;95921.19;;;1.72;100.00
4590;BME280;2307;48.448;9.216;2023-03-04T11:24:13;95921.03;;;1.66;100.00
4590;BME280;2307;48.448;9.216;2023-03-04T11:26:42;95914.38;;;1.63;100.00
4590;BME280;2307;48.448;9.216;2023-03-04T11:29:12;95914.19;;;1.73;100.00
4590;BME280;2307;48.448;9.216;2023-03-04T11:31:42;95907.53;;;1.70;100.00
4590;BME280;2307;48.448;9.216;2023-03-04T11:34:12;95899.97;;;1.91;100.00
4590;BME280;2307;48.448;9.216;2023-03-04T11:36:46;95901.47;;;1.78;100.00
4590;BME280;2307;48.448;9.216;2023-03-04T11:39:19;95898.66;;;1.87;100.00
4590;BME280;2307;48.448;9.216;2023-03-04T11:41:49;95891.91;;;1.70;100.00
4590;BME280;2307;48.448;9.216;2023-03-04T11:44:17;95895.75;;;1.82;100.00
4590;BME280;2307;48.448;9.216;2023-03-04T11:49:35;95889.97;;;1.64;100.00
4590;BME280;2307;48.448;9.216;2023-03-04T11:52:12;95885.09;;;1.61;100.00
4590;BME280;2307;48.448;9.216;2023-03-04T11:55:02;95880.88;;;1.60;100.00
4590;BME280;2307;48.448;9.216;2023-03-04T11:57:32;95875.88;;;1.89;100.00
4590;BME280;2307;48.448;9.216;2023-03-04T12:00:02;95877.75;;;2.03;100.00
4590;BME280;2307;48.448;9.216;2023-03-04T12:02:35;95878.75;;;2.02;100.00
4590;BME280;2307;48.448;9.216;2023-03-04T12:05:17;95874.22;;;2.27;100.00
4590;BME280;2307;48.448;9.216;2023-03-04T12:10:27;95870.59;;;2.36;100.00
4590;BME280;2307;48.448;9.216;2023-03-04T12:15:41;95868.69;;;1.99;100.00
4590;BME280;2307;48.448;9.216;2023-03-04T12:18:16;95861.44;;;2.09;100.00
4590;BME280;2307;48.448;9.216;2023-03-04T12:20:53;95862.09;;;1.81;100.00
4590;BME280;2307;48.448;9.216;2023-03-04T12:23:29;95861.56;;;1.93;100.00
4590;BME280;2307;48.448;9.216;2023-03-04T12:26:02;95853.94;;;2.14;100.00
4590;BME280;2307;48.448;9.216;2023-03-04T12:28:39;95851.88;;;2.33;100.00
4590;BME280;2307;48.448;9.216;2023-03-04T12:31:20;95842.25;;;2.33;100.00
4590;BME280;2307;48.448;9.216;2023-03-04T12:33:54;95836.00;;;2.20;100.00
4590;BME280;2307;48.448;9.216;2023-03-04T12:36:29;95830.88;;;2.03;100.00
4590;BME280;2307;48.448;9.216;2023-03-04T12:38:58;95825.91;;;2.17;100.00
4590;BME280;2307;48.448;9.216;2023-03-04T12:41:33;95834.56;;;2.40;100.00
4590;BME280;2307;48.448;9.216;2023-03-04T12:44:07;95830.06;;;2.56;100.00
4590;BME280;2307;48.448;9.216;2023-03-04T12:46:40;95832.19;;;2.53;100.00
4590;BME280;2307;48.448;9.216;2023-03-04T12:49:15;95827.03;;;2.67;100.00
4590;BME280;2307;48.448;9.216;2023-03-04T12:51:48;95826.50;;;2.72;100.00
4590;BME280;2307;48.448;9.216;2023-03-04T12:54:21;95825.56;;;2.65;100.00
4590;BME280;2307;48.448;9.216;2023-03-04T12:56:52;95816.56;;;2.90;100.00
4590;BME280;2307;48.448;9.216;2023-03-04T12:59:20;95821.50;;;2.85;100.00
4590;BME280;2307;48.448;9.216;2023-03-04T13:01:48;95819.53;;;2.87;100.00
4590;BME280;2307;48.448;9.216;2023-03-04T13:04:21;95811.38;;;3.34;100.00
4590;BME280;2307;48.448;9.216;2023-03-04T13:06:54;95808.41;;;4.17;100.00
4590;BME280;2307;48.448;9.216;2023-03-04T13:09:25;95803.88;;;4.47;97.53
4590;BME280;2307;48.448;9.216;2023-03-04T13:11:56;95802.50;;;4.51;94.57
4590;BME280;2307;48.448;9.216;2023-03-04T13:14:28;95803.13;;;4.53;95.24
4590;BME280;2307;48.448;9.216;2023-03-04T13:16:55;95796.66;;;4.49;95.75
4590;BME280;2307;48.448;9.216;2023-03-04T13:24:50;95789.84;;;4.54;93.47
4590;BME280;2307;48.448;9.216;2023-03-04T13:30:02;95782.53;;;4.43;98.99
4590;BME280;2307;48.448;9.216;2023-03-04T13:32:34;95797.09;;;4.52;92.63
4590;BME280;2307;48.448;9.216;2023-03-04T13:35:21;95792.31;;;4.56;91.08
4590;BME280;2307;48.448;9.216;2023-03-04T13:37:59;95787.63;;;4.72;91.47
4590;BME280;2307;48.448;9.216;2023-03-04T13:40:33;95788.13;;;4.89;92.75